Wetterdaten: Mai 2015
Datum Temp Feuchte Luftdruck Regen Wind Richtung Sonnenschein UV Solar Windben
01.05.2015 6,5 C 79 % 1008,1 hPa 0,2 l/m 0,8 km/h W-NW 5,83 h 2,2 UV-I 324 W/m 6,9 km/h
02.05.2015 9,1 C 67 % 1011,7 hPa 0,0 l/m 0,2 km/h N-NW 11,00 h 2,7 UV-I 474 W/m 0,8 km/h
03.05.2015 12,2 C 85 % 1004,3 hPa 8,8 l/m 9,6 km/h SO 3,33 h 2,0 UV-I 211 W/m 18,5 km/h
04.05.2015 16,0 C 72 % 1006,9 hPa 0,0 l/m 2,6 km/h S-SW 6,42 h 2,8 UV-I 360 W/m 8,1 km/h
05.05.2015 15,9 C 73 % 1003,3 hPa 5,0 l/m 12,9 km/h S-SO 3,75 h 2,4 UV-I 254 W/m 29,0 km/h
06.05.2015 10,8 C 74 % 1011,6 hPa 1,0 l/m 5,3 km/h S 7,08 h 2,7 UV-I 339 W/m 15,7 km/h
07.05.2015 9,3 C 80 % 1017,6 hPa 0,0 l/m 5,6 km/h S-SW 3,42 h 1,8 UV-I 247 W/m 13,3 km/h
08.05.2015 13,6 C 65 % 1015,1 hPa 0,0 l/m 0,0 km/h S-SO 6,00 h 2,4 UV-I 352 W/m 0,0 km/h
09.05.2015 14,0 C 71 % 1016,2 hPa 0,4 l/m 4,0 km/h S-SW 3,50 h 2,2 UV-I 252 W/m 15,3 km/h
10.05.2015 10,6 C 74 % 1025,8 hPa 0,0 l/m 1,0 km/h NW 9,08 h 3,0 UV-I 437 W/m 8,1 km/h
11.05.2015 16,6 C 63 % 1021,0 hPa 0,0 l/m 8,3 km/h S 10,75 h 2,5 UV-I 374 W/m 12,5 km/h
12.05.2015 16,8 C 64 % 1015,7 hPa 0,0 l/m 10,2 km/h S 7,08 h 2,4 UV-I 309 W/m 26,2 km/h
13.05.2015 12,5 C 65 % 1015,5 hPa 0,0 l/m 2,1 km/h NW 8,00 h 2,6 UV-I 406 W/m 6,8 km/h
14.05.2015 10,6 C 69 % 1012,5 hPa 0,0 l/m 0,3 km/h N-NW 8,67 h 2,9 UV-I 443 W/m 2,0 km/h
15.05.2015 10,8 C 70 % 1017,0 hPa 0,0 l/m 2,2 km/h N-NO 12,58 h 3,0 UV-I 493 W/m 6,0 km/h
16.05.2015 9,3 C 91 % 1021,6 hPa 2,8 l/m 2,1 km/h S-SW 1,00 h 1,7 UV-I 166 W/m 10,5 km/h
17.05.2015 10,4 C 69 % 1022,2 hPa 0,0 l/m 1,3 km/h NW 4,83 h 2,3 UV-I 284 W/m 5,6 km/h
18.05.2015 13,9 C 66 % 1007,0 hPa 0,0 l/m 0,8 km/h S 7,25 h 2,7 UV-I 341 W/m 2,4 km/h
19.05.2015 9,5 C 72 % 1006,9 hPa 0,8 l/m 5,5 km/h S-SW 3,25 h 1,9 UV-I 269 W/m 12,9 km/h
20.05.2015 9,2 C 75 % 1014,7 hPa 0,8 l/m 0,9 km/h S-SW 6,25 h 2,4 UV-I 358 W/m 7,3 km/h
21.05.2015 10,4 C 74 % 1024,5 hPa 0,2 l/m 0,1 km/h N-NW 4,08 h 1,8 UV-I 273 W/m 1,2 km/h
22.05.2015 12,3 C 72 % 1023,9 hPa 0,0 l/m 0,1 km/h N-NW 9,67 h 2,8 UV-I 415 W/m 1,2 km/h
23.05.2015 12,8 C 79 % 1020,0 hPa 0,0 l/m 0,0 km/h N 2,67 h 2,2 UV-I 216 W/m 0,4 km/h
24.05.2015 12,6 C 78 % 1017,8 hPa 0,0 l/m 0,0 km/h SO 6,83 h 2,5 UV-I 310 W/m 0,0 km/h
25.05.2015 9,7 C 89 % 1014,3 hPa 2,2 l/m 0,3 km/h NW 1,92 h 1,3 UV-I 159 W/m 2,8 km/h
26.05.2015 9,5 C 81 % 1019,5 hPa 1,6 l/m 1,5 km/h N-NW 1,83 h 1,8 UV-I 193 W/m 11,6 km/h
27.05.2015 9,4 C 76 % 1021,3 hPa 0,0 l/m 0,7 km/h NW 2,33 h 1,8 UV-I 222 W/m 5,6 km/h
28.05.2015 12,0 C 77 % 1013,0 hPa 3,6 l/m 1,7 km/h S 4,50 h 2,7 UV-I 318 W/m 12,0 km/h
29.05.2015 12,4 C 74 % 1008,4 hPa 0,2 l/m 4,4 km/h S 6,17 h 2,1 UV-I 274 W/m 12,9 km/h
30.05.2015 8,4 C 84 % 1013,6 hPa 10,4 l/m 1,0 km/h S-SW 5,33 h 2,1 UV-I 292 W/m 7,2 km/h
31.05.2015 14,9 C 71 % 1011,1 hPa 0,0 l/m 13,2 km/h S 4,67 h 2,5 UV-I 279 W/m 23,7 km/h
Min-Datum 02.05.15 10.05.15 05.05.15 14 Tage 01.05.15 - - - - 01.05.15
Min-Zeit 06:00 17:15 06:05 - 00:00 - - - - 00:00
Minimum -0,1 C 38 % 998,0 hPa - 0,0 km/h - - - - 0,0 km/h
Max-Datum 12.05.15 08.05.15 10.05.15 30.05.15 05.05.15 - 15.05.15 31.05.15 28.05.15 05.05.15
Max-Zeit 13:10 00:45 14:35 11:10 16:00 - 19:35 14:00 12:30 17:40
Maximum 25,5 C 98 % 1026,8 hPa 10,4 l/m 36,1 km/h
S-SO
- 12,50 h 7,0 UV-I 1310 W/m 59,5 km/h
S
Durchschnitt 11,7 C 74 % 1014,9 hPa #38,0 l/m 3,2 km/h S #179:05 h 2,3 UV-I 311 W/m 9,2 km/h

Durchschnitt Minimum Temp.5,3 C
Durchschnitt Maximum Temp.17,5 C